Forest Glade, Texas
Current Conditions -  °F | °C
As of 12:15 AM on Sunday 21 Dec 2014 (Local Time) from KLXY Reporting Station
Overcast Overcast  
Wind Chill: 46°   Ceiling: 2500
Heat Index: 46°   Visibility: 10mi
Dew Point: 43°   Wind: 3mph
Humidity: 88%   Direction: 150°SSE
Pressure: 30.18"   Gusts: NA
Location:  31.6887°N, 96.511°W
Report Text: KLXY 210615Z AUTO 15003KT 10SM OVC025 08/06 A3018 RMK AO2 T00800062
Loading
Personal Weather Stations






























Interactive Weather Map New forecast layout! Learn more

10-Day Weather Forecast

Advertisements
Track Severe Weather on mobile